Historyczne dane pomiarowe

Dodano dane terminowe – wersja testowa.

Dane z okresu 1951-2019

Wersja bazy: 1.34 [2019-03-16, lista zmian], aktualizacja planowana na 2019-04-15

Dane meteo z obszaru Polski uzyskane na podstawie danych udostępnionych przez Instytut Meteorologii i Gospodarki Wodnej – Państwowy Instytut Badawczy.

 

Wybierz Datę:    

       

TemperaturaWilgotnośćWiatrCiśnienieOpadyŚniegCzas trwania zjawisk
 Stacja t tx tn tng RH VA  wxwx mslp ppp RRR   cm mm wxwxwxwxwxwxwx
1994-08-14 12.3 17.5 9.2- 72.3- 3.3 1.7---- 0.0------------
1994-08-13 15.0 20.1 11.7- 79.5- 5.0 1.3---- 1.5------------
1994-08-12 14.1 18.6 11.3- 88.0- 7.0 1.0---- 7.3------------
1994-08-11 16.5 23.0 12.2- 87.3- 7.0 1.0---- 6.4------------
1994-08-10 17.7 26.2 8.3- 74.5- 1.3 0.3---- 0.0------------
1994-08-09 17.4 21.7 14.7- 91.3- 7.0 1.0---- 4.0------------
1994-08-08 19.9 28.0 11.7- 78.3- 7.3 1.3---- 0.0------------
1994-08-07 18.4 26.8 15.5- 78.3- 5.0 1.0---- 0.4------------
1994-08-06 19.4 28.0 11.7- 73.0- 3.7 0.7---- 0.2------------
1994-08-05 19.7 28.0 11.2- 68.5- 1.0 0.3---- 0.0------------
1994-08-04 17.7 25.5 12.3- 78.8- 4.7 1.0---- 0.0------------
1994-08-03 19.0 27.2 13.7- 82.3- 5.3 0.7---- 15.3------------
1994-08-02 20.9 29.4 11.7- 67.0- 3.3 1.0---- 0.1------------
1994-08-01 21.4 32.0 13.1- 71.0- 4.0 1.3---- 0.0------------
1994-07-31 21.0 29.7 11.4- 65.5- 1.0 0.3---- 0.0------------
1994-07-30 21.7 32.0 10.7- 64.5- 1.0 0.3---- 0.0------------
1994-07-29 21.8 30.0 10.7- 62.3- 0.7 0.7---- 0.0------------
1994-07-28 20.6 29.6 11.7- 68.0- 2.0 1.0---- 0.0------------
1994-07-27 21.0 29.4 12.2- 66.5- 1.3 0.3---- 0.0------------
1994-07-26 21.3 29.0 12.3- 66.5- 2.3 0.3---- 0.0------------
1994-07-25 20.0 28.6 9.2- 70.5- 4.0 0.3---- 0.0------------
1994-07-24 19.0 25.7 9.6- 66.8- 3.3 0.7---- 0.0------------
1994-07-23 17.9 26.2 8.0- 65.3- 1.3 0.7---- 0.0------------
1994-07-22 17.4 25.0 8.3- 66.0- 0.3 0.3---- 0.0------------
1994-07-21 15.7 23.0 6.8- 68.3- 0.0 1.0---- 0.0------------
1994-07-20 15.7 21.3 8.7- 71.8- 2.3 1.0---- 0.0------------
1994-07-19 18.5 22.2 12.7- 73.5- 5.3 1.3---- 0.0------------
1994-07-18 18.3 23.5 13.7- 84.0- 4.3 0.3---- 0.0------------
1994-07-17 17.2 23.7 11.2- 86.8- 4.3 0.7---- 9.8------------
1994-07-16 17.0 24.4 11.2- 87.8- 4.7 1.0---- 0.2------------
1994-07-15 16.0 23.4 9.3- 91.0- 4.3 1.0---- 3.0------------
1994-07-14 17.5 25.6 10.3- 79.5- 4.7 1.0---- 2.4------------
1994-07-13 18.1 25.2 9.0- 69.3- 3.7 1.7---- 0.0------------
1994-07-12 16.2 21.5 10.9- 79.3- 3.0 0.7---- 0.0------------
1994-07-11 14.0 19.9 8.8- 87.0- 5.3 1.0---- 0.0------------
1994-07-10 11.0 13.4 9.3- 98.5- 7.7 1.0---- 2.7------------
1994-07-09 11.7 18.3 7.8- 83.5- 7.7 1.0---- 10.4------------
1994-07-08 13.7 17.9 9.8- 72.5- 4.3 1.3---- 0.0------------
1994-07-07 13.8 22.1 8.7- 86.5- 5.7 1.0---- 9.7------------
1994-07-06 16.9 22.1 10.3- 70.5- 1.0 1.0---- 0.0------------
1994-07-05 18.5 24.0 8.3- 68.8- 5.7 1.0---- 0.0------------
1994-07-04 18.2 26.0 8.2- 71.0- 0.0 1.0---- 0.0------------
1994-07-03 16.8 24.8 6.8- 70.0- 0.0 0.7---- 0.0------------
1994-07-02 15.7 23.0 6.4- 72.8- 0.0 0.7---- 0.0------------
1994-07-01 15.5 18.9 13.2- 89.8- 5.0 0.7---- 0.0------------
1994-06-30 20.0 25.6 16.2- 90.3- 5.3 1.0---- 5.1------------
1994-06-29 20.0 28.0 12.2- 82.8- 3.0 1.0---- 1.8------------
1994-06-28 21.1 28.5 16.0- 79.8- 4.0 0.7---- 0.0------------
1994-06-27 18.8 29.0 11.2- 75.5- 3.7 1.0---- 0.1------------
1994-06-26 17.4 26.5 5.9- 68.8- 0.0 1.0---- 0.0------------
1994-06-25 12.0 21.1 1.0- 60.5- 0.0 1.0---- 0.0------------
1994-06-24 11.3 17.9 3.5- 64.3- 0.0 0.7---- 0.0------------
1994-06-23 15.1 21.1 10.9- 72.3- 4.3 1.7---- 0.0------------
1994-06-22 16.9 24.5 6.3- 66.0- 2.7 1.3---- 1.4------------
1994-06-21 14.7 18.5 6.4- 68.3- 1.3 1.0---- 0.0------------
1994-06-20 14.9 20.7 7.6- 75.5- 5.7 1.3---- 0.0------------
1994-06-19 15.7 22.1 8.3- 66.0- 4.0 1.3---- 0.0------------
1994-06-18 10.2 17.1 1.9- 75.3- 5.0 2.0---- 9.5------------
1994-06-17 8.2 12.5 5.4- 84.8- 6.3 1.3---- 1.6------------
1994-06-16 10.3 17.1 4.3- 71.3- 6.7 2.0---- 5.0------------
222.5 ms

 

Źródłem pochodzenia danych jest Instytut Meteorologii i Gospodarki Wodnej – Państwowy Instytut Badawczy. Dane Instytutu Meteorologii i Gospodarki Wodnej – Państwowego Instytutu Badawczego zostały przetworzone.

Dane źródłowe można odnaleźć na stronie https://dane.imgw.pl